Time;durP1;ratioP1;P1;durP2;ratioP2;P2;SDS_P1;SDS_P2;PMS_P1;PMS_P2;Temp;Humidity;BMP_temperature;BMP_pressure;BME280_temperature;BME280_humidity;BME280_pressure;Samples;Min_cycle;Max_cycle;Signal;HPM_P1;HPM_P2
2020/12/16 00:00:56;;;;;;;1.45;1.00;;;15.60;90.10;;;;;;4230517;28;20056;-41
2020/12/16 00:03:17;;;;;;;0.68;0.68;;;15.60;90.10;;;;;;4231061;28;20061;-41
2020/12/16 00:05:39;;;;;;;0.10;0.10;;;15.60;90.20;;;;;;4230183;28;20059;-41
2020/12/16 00:08:00;;;;;;;0.10;0.10;;;15.60;90.60;;;;;;4230524;28;20066;-41
2020/12/16 00:10:21;;;;;;;0.65;0.65;;;15.60;90.20;;;;;;4229833;28;20159;-41
2020/12/16 00:12:42;;;;;;;0.28;0.28;;;15.60;90.20;;;;;;4230151;28;20581;-41
2020/12/16 00:15:03;;;;;;;0.10;0.10;;;15.50;90.20;;;;;;4230295;28;20139;-41
2020/12/16 00:17:26;;;;;;;1.35;1.35;;;15.60;90.20;;;;;;4230110;28;20460;-41
2020/12/16 00:19:47;;;;;;;0.17;0.15;;;15.60;90.20;;;;;;4229965;28;20100;-41
2020/12/16 00:22:26;;;;;;;0.57;0.57;;;15.60;90.30;;;;;;4230129;28;20504;-42
2020/12/16 00:24:47;;;;;;;0.32;0.32;;;15.50;90.20;;;;;;4230156;28;20055;-41
2020/12/16 00:27:11;;;;;;;0.10;0.10;;;15.50;90.30;;;;;;4229791;28;20059;-41
2020/12/16 00:29:32;;;;;;;2.30;1.02;;;15.50;90.30;;;;;;4230038;28;20513;-41
2020/12/16 00:31:53;;;;;;;0.30;0.30;;;15.50;90.30;;;;;;4230012;28;20056;-41
2020/12/16 00:34:14;;;;;;;0.10;0.10;;;15.40;90.30;;;;;;4230041;28;20569;-41
2020/12/16 00:36:36;;;;;;;0.00;0.00;;;15.50;90.30;;;;;;4229875;28;20040;-41
2020/12/16 00:39:06;;;;;;;0.30;0.30;;;15.50;90.40;;;;;;4229447;28;20040;-43
2020/12/16 00:41:30;;;;;;;0.08;0.08;;;15.50;90.40;;;;;;4230215;28;20055;-41
2020/12/16 00:43:50;;;;;;;0.60;0.60;;;15.50;90.40;;;;;;4230084;28;20055;-41
2020/12/16 00:46:13;;;;;;;0.63;0.63;;;15.40;90.40;;;;;;4230322;28;20059;-41
2020/12/16 00:48:34;;;;;;;1.13;1.13;;;15.40;90.40;;;;;;4229792;28;20687;-41
2020/12/16 00:50:55;;;;;;;0.88;0.88;;;15.40;90.40;;;;;;4228367;28;20048;-41
2020/12/16 00:53:16;;;;;;;0.13;0.13;;;15.40;90.40;;;;;;4228494;28;20055;-43
2020/12/16 00:55:45;;;;;;;0.15;0.15;;;15.40;90.40;;;;;;4228680;28;20733;-41
2020/12/16 00:58:11;;;;;;;1.63;0.45;;;15.40;90.40;;;;;;4229585;28;20130;-41
2020/12/16 01:00:36;;;;;;;0.00;0.00;;;15.40;90.40;;;;;;4216224;28;20052;-40
2020/12/16 01:03:00;;;;;;;0.43;0.43;;;15.40;90.40;;;;;;4228903;28;20097;-41
2020/12/16 01:05:23;;;;;;;0.13;0.13;;;15.40;90.40;;;;;;4228754;28;20052;-41
2020/12/16 01:07:45;;;;;;;;;;;15.40;90.40;;;;;;4229143;28;20047;-41
2020/12/16 01:10:08;;;;;;;0.90;0.90;;;15.40;90.40;;;;;;4228609;28;19966;-41
2020/12/16 01:12:30;;;;;;;0.22;0.22;;;15.40;90.40;;;;;;4228626;28;20811;-41
2020/12/16 01:14:52;;;;;;;0.08;0.08;;;15.40;90.40;;;;;;4228705;28;20048;-41
2020/12/16 01:17:14;;;;;;;0.30;0.30;;;15.40;90.40;;;;;;4229730;28;20086;-41
2020/12/16 01:19:35;;;;;;;1.42;1.38;;;15.30;90.40;;;;;;4228053;28;20051;-41
2020/12/16 01:21:56;;;;;;;1.25;0.35;;;15.30;90.40;;;;;;4228641;28;20503;-41
2020/12/16 01:24:17;;;;;;;0.10;0.10;;;15.30;90.50;;;;;;4228180;28;20060;-41
2020/12/16 01:26:40;;;;;;;0.00;0.00;;;15.30;90.50;;;;;;4228727;28;20171;-41
2020/12/16 01:29:02;;;;;;;0.10;0.10;;;15.30;90.60;;;;;;4211744;28;20063;-41
2020/12/16 01:31:24;;;;;;;0.40;0.40;;;15.50;90.40;;;;;;4211591;28;20063;-41
2020/12/16 01:33:45;;;;;;;0.00;0.00;;;15.60;90.10;;;;;;4211920;28;20568;-41
2020/12/16 01:36:21;;;;;;;0.50;0.50;;;15.70;89.90;;;;;;4221206;28;20047;-41
2020/12/16 01:38:43;;;;;;;0.20;0.20;;;15.70;89.50;;;;;;4228179;28;20097;-41
2020/12/16 01:41:06;;;;;;;0.00;0.00;;;15.80;89.30;;;;;;4228432;28;20047;-40
2020/12/16 01:43:37;;;;;;;0.20;0.20;;;15.80;89.20;;;;;;4228264;28;20051;-41
2020/12/16 01:46:02;;;;;;;1.10;1.08;;;15.80;89.20;;;;;;4228453;28;20051;-41
2020/12/16 01:48:23;;;;;;;0.85;0.85;;;15.70;89.20;;;;;;4229294;28;20089;-42
2020/12/16 01:50:45;;;;;;;0.98;0.98;;;15.70;89.30;;;;;;4228136;28;20060;-41
2020/12/16 01:53:20;;;;;;;0.73;0.73;;;15.70;89.40;;;;;;4227938;28;20059;-41
2020/12/16 01:55:44;;;;;;;0.20;0.20;;;15.70;89.50;;;;;;4228444;28;20048;-41
2020/12/16 01:58:21;;;;;;;0.52;0.52;;;15.60;89.60;;;;;;4229046;28;20501;-41
2020/12/16 02:00:45;;;;;;;1.13;1.02;;;15.60;89.80;;;;;;4228058;28;20048;-41
2020/12/16 02:03:08;;;;;;;0.40;0.40;;;15.50;89.80;;;;;;4229315;28;20059;-41
2020/12/16 02:05:57;;;;;;;0.85;0.85;;;15.60;90.00;;;;;;4211354;28;20059;-41
2020/12/16 02:08:20;;;;;;;0.00;0.00;;;15.70;89.50;;;;;;4211322;28;20518;-41
2020/12/16 02:10:42;;;;;;;0.47;0.47;;;16.00;88.10;;;;;;4211201;28;20136;-41
2020/12/16 02:13:06;;;;;;;2.30;1.88;;;16.20;86.90;;;;;;4222878;28;20054;-41
2020/12/16 02:15:30;;;;;;;0.57;0.57;;;16.40;86.00;;;;;;4228098;28;20085;-41
2020/12/16 02:17:52;;;;;;;;;;;16.50;86.40;;;;;;4228099;28;20051;-41
2020/12/16 02:20:14;;;;;;;1.10;0.63;;;16.50;85.20;;;;;;4228926;28;19926;-41
2020/12/16 02:22:48;;;;;;;0.52;0.52;;;16.50;85.30;;;;;;4227635;28;20077;-41
2020/12/16 02:25:11;;;;;;;0.70;0.70;;;16.50;85.50;;;;;;4227966;28;20054;-41
2020/12/16 02:27:42;;;;;;;0.10;0.10;;;16.40;85.60;;;;;;4228759;28;20047;-41
2020/12/16 02:30:13;;;;;;;0.33;0.33;;;16.40;85.90;;;;;;4228185;28;20444;-41
2020/12/16 02:33:12;;;;;;;1.35;1.08;;;16.30;86.10;;;;;;4193400;28;20438;-41
2020/12/16 02:35:43;;;;;;;;;;;16.20;86.50;;;;;;4179369;28;20427;-41
2020/12/16 02:38:09;;;;;;;2.25;1.17;;;16.20;86.80;;;;;;4207430;28;19937;-41
2020/12/16 02:40:32;;;;;;;0.75;0.75;;;16.10;87.00;;;;;;4214195;28;20491;-41
2020/12/16 02:42:55;;;;;;;2.13;1.20;;;16.00;87.30;;;;;;4225513;28;20043;-41
2020/12/16 02:45:16;;;;;;;2.28;1.15;;;16.00;87.60;;;;;;4232398;28;20507;-41
2020/12/16 02:47:50;;;;;;;0.00;0.00;;;16.00;88.70;;;;;;4232135;28;20052;-41
2020/12/16 02:50:14;;;;;;;0.20;0.20;;;16.20;87.10;;;;;;4231114;28;20047;-41
2020/12/16 02:52:41;;;;;;;0.10;0.10;;;16.40;86.00;;;;;;4230891;28;20421;-41
2020/12/16 02:55:09;;;;;;;0.30;0.30;;;16.50;85.20;;;;;;4230734;28;20514;-41
2020/12/16 02:57:40;;;;;;;0.80;0.80;;;16.60;84.80;;;;;;4231667;28;20154;-41
2020/12/16 03:00:04;;;;;;;0.32;0.13;;;16.60;84.50;;;;;;4231917;28;20075;-41
2020/12/16 03:03:06;;;;;;;0.38;0.38;;;16.60;84.60;;;;;;4195002;28;20053;-41
2020/12/16 03:05:46;;;;;;;0.10;0.10;;;16.50;85.70;;;;;;4195839;28;20052;-40
2020/12/16 03:08:21;;;;;;;1.45;1.45;;;16.40;85.10;;;;;;4219481;28;20059;-41
2020/12/16 03:10:50;;;;;;;0.08;0.08;;;16.40;85.40;;;;;;4231038;28;20520;-41
2020/12/16 03:13:12;;;;;;;0.10;0.10;;;16.30;85.70;;;;;;4230406;28;20101;-40
2020/12/16 03:15:33;;;;;;;0.65;0.65;;;16.20;86.00;;;;;;4230608;28;20051;-41
2020/12/16 03:17:54;;;;;;;0.80;0.80;;;16.20;86.40;;;;;;4230703;28;20054;-41
2020/12/16 03:20:16;;;;;;;0.60;0.60;;;16.10;86.80;;;;;;4230355;28;20050;-40
2020/12/16 03:22:37;;;;;;;0.75;0.75;;;16.20;86.60;;;;;;4230714;28;20135;-41
2020/12/16 03:25:24;;;;;;;0.85;0.85;;;16.20;86.20;;;;;;4220566;28;20101;-40
2020/12/16 03:28:12;;;;;;;0.30;0.30;;;16.20;86.10;;;;;;4224625;28;20055;-41
2020/12/16 03:31:00;;;;;;;0.30;0.30;;;16.20;86.00;;;;;;4230415;28;20097;-41
2020/12/16 03:33:36;;;;;;;1.92;1.83;;;16.20;86.20;;;;;;4230220;28;20061;-41
2020/12/16 03:36:17;;;;;;;0.98;0.98;;;16.20;86.40;;;;;;4230104;28;20101;-40
2020/12/16 03:38:39;;;;;;;0.60;0.60;;;16.20;86.50;;;;;;4230065;28;20425;-40
2020/12/16 03:41:00;;;;;;;0.85;0.80;;;16.30;86.10;;;;;;4230446;28;20097;-40
2020/12/16 03:43:27;;;;;;;0.10;0.10;;;16.40;85.50;;;;;;4213285;28;20062;-40
2020/12/16 03:45:49;;;;;;;0.00;0.00;;;16.40;85.10;;;;;;4213249;28;20048;-41
2020/12/16 03:48:10;;;;;;;2.83;1.85;;;16.40;85.00;;;;;;4213016;28;20060;-41
2020/12/16 03:50:31;;;;;;;0.60;0.60;;;16.40;85.10;;;;;;4213102;28;20048;-41
2020/12/16 03:52:52;;;;;;;0.10;0.10;;;16.40;86.10;;;;;;4227127;28;20079;-41
2020/12/16 03:55:37;;;;;;;0.63;0.63;;;16.50;84.70;;;;;;4229906;28;20132;-41
2020/12/16 03:58:18;;;;;;;2.30;1.17;;;16.60;84.20;;;;;;4212231;28;20063;-40
2020/12/16 04:01:05;;;;;;;;;;;16.70;83.90;;;;;;4205653;28;20064;-40
2020/12/16 04:03:26;;;;;;;1.70;1.60;;;16.60;83.70;;;;;;4214085;28;19920;-41
2020/12/16 04:05:59;;;;;;;0.28;0.28;;;16.60;83.90;;;;;;4229830;28;20047;-40
2020/12/16 04:08:19;;;;;;;;;;;16.60;84.00;;;;;;4230155;28;20051;-41
2020/12/16 04:11:02;;;;;;;0.75;0.75;;;16.70;83.60;;;;;;4229791;28;19923;-41
2020/12/16 04:13:23;;;;;;;0.10;0.10;;;16.70;83.30;;;;;;4229504;28;20051;-41
2020/12/16 04:15:45;;;;;;;0.85;0.85;;;16.70;83.20;;;;;;4229544;28;20114;-41
2020/12/16 04:18:08;;;;;;;1.85;0.77;;;16.70;83.10;;;;;;4230580;28;20066;-40
2020/12/16 04:20:29;;;;;;;0.70;0.70;;;16.70;83.20;;;;;;4229473;28;20147;-40
2020/12/16 04:22:55;;;;;;;0.43;0.43;;;16.60;83.40;;;;;;4229222;28;20051;-41
2020/12/16 04:25:17;;;;;;;0.38;0.38;;;16.60;83.90;;;;;;4229602;28;20469;-41
2020/12/16 04:27:38;;;;;;;0.10;0.10;;;16.70;83.60;;;;;;4229245;28;20048;-41
2020/12/16 04:29:59;;;;;;;0.55;0.55;;;16.80;83.10;;;;;;4229423;28;20472;-41
2020/12/16 04:32:23;;;;;;;0.35;0.35;;;16.80;82.80;;;;;;4228992;28;20047;-41
2020/12/16 04:34:45;;;;;;;0.32;0.32;;;16.80;82.80;;;;;;4228998;28;20407;-41
2020/12/16 04:37:06;;;;;;;1.75;1.63;;;16.80;83.00;;;;;;4213512;28;20056;-41
2020/12/16 04:39:34;;;;;;;0.20;0.20;;;16.70;83.20;;;;;;4212695;28;20052;-41
2020/12/16 04:41:57;;;;;;;0.00;0.00;;;16.60;83.50;;;;;;4219081;28;20130;-41
2020/12/16 04:44:18;;;;;;;1.85;1.75;;;16.60;83.90;;;;;;4229123;28;20052;-41
2020/12/16 04:46:48;;;;;;;1.08;0.75;;;16.60;83.90;;;;;;4228809;28;20048;-41
2020/12/16 04:49:19;;;;;;;0.10;0.10;;;16.70;83.30;;;;;;4229185;28;20063;-41
2020/12/16 04:51:46;;;;;;;0.38;0.38;;;16.80;82.90;;;;;;4229304;28;20671;-41
2020/12/16 04:54:16;;;;;;;0.20;0.20;;;16.80;82.90;;;;;;4228675;28;20480;-40
2020/12/16 04:56:38;;;;;;;0.30;0.30;;;16.80;83.00;;;;;;4230146;28;20047;-41
2020/12/16 04:59:19;;;;;;;0.00;0.00;;;16.80;83.10;;;;;;4229001;28;20056;-41
2020/12/16 05:02:04;;;;;;;2.78;2.55;;;16.80;82.80;;;;;;4228983;28;20505;-42
2020/12/16 05:04:46;;;;;;;0.35;0.35;;;16.80;82.70;;;;;;4230171;28;20122;-41
2020/12/16 05:07:26;;;;;;;1.67;1.58;;;16.70;82.80;;;;;;4228401;28;20055;-41
2020/12/16 05:09:47;;;;;;;0.70;0.70;;;16.70;83.10;;;;;;4230163;28;20051;-44
2020/12/16 05:12:17;;;;;;;1.48;1.38;;;16.70;83.30;;;;;;4229505;28;20490;-43
2020/12/16 05:14:38;;;;;;;0.00;0.00;;;16.80;82.90;;;;;;4229769;28;20208;-42
2020/12/16 05:17:03;;;;;;;0.00;0.00;;;17.00;81.90;;;;;;4228821;28;20066;-41
2020/12/16 05:19:36;;;;;;;0.13;0.13;;;17.10;81.20;;;;;;4228468;28;20596;-41
2020/12/16 05:22:20;;;;;;;0.10;0.10;;;17.10;81.10;;;;;;4228516;28;20047;-40
2020/12/16 05:24:43;;;;;;;1.73;0.95;;;17.10;80.90;;;;;;4229837;28;20407;-48
2020/12/16 05:27:07;;;;;;;0.45;0.45;;;17.10;81.10;;;;;;4229399;28;20070;-43
2020/12/16 05:29:28;;;;;;;1.77;1.50;;;17.00;81.40;;;;;;4229665;28;20051;-42
2020/12/16 05:31:50;;;;;;;0.70;0.70;;;16.90;81.80;;;;;;4229641;28;20065;-43
2020/12/16 05:34:11;;;;;;;1.27;1.02;;;16.90;82.20;;;;;;4229843;28;20058;-42
2020/12/16 05:36:32;;;;;;;0.20;0.20;;;16.70;82.50;;;;;;4229180;28;20116;-42
2020/12/16 05:38:56;;;;;;;0.20;0.20;;;16.70;83.00;;;;;;4229987;28;20056;-41
2020/12/16 05:41:24;;;;;;;0.65;0.65;;;16.50;83.40;;;;;;4228985;28;20096;-42
2020/12/16 05:43:45;;;;;;;0.75;0.75;;;16.50;83.90;;;;;;4229425;28;20048;-41
2020/12/16 05:46:06;;;;;;;0.28;0.28;;;16.40;84.20;;;;;;4229430;28;20134;-43
2020/12/16 05:48:30;;;;;;;3.15;0.85;;;16.30;84.60;;;;;;4229245;28;20047;-41
2020/12/16 05:50:53;;;;;;;0.03;0.03;;;16.30;84.80;;;;;;4229588;28;20105;-43
2020/12/16 05:53:18;;;;;;;0.68;0.68;;;16.50;84.40;;;;;;4229312;28;20130;-42
2020/12/16 05:55:51;;;;;;;6.63;1.65;;;16.50;83.70;;;;;;4229249;28;20058;-41
2020/12/16 05:58:15;;;;;;;1.70;1.60;;;16.60;83.40;;;;;;4229581;28;20047;-41
2020/12/16 06:00:50;;;;;;;1.45;0.98;;;16.60;83.30;;;;;;4229548;28;20104;-41
2020/12/16 06:03:20;;;;;;;0.52;0.52;;;16.60;83.60;;;;;;4229536;28;20455;-41
2020/12/16 06:05:43;;;;;;;0.00;0.00;;;16.50;83.70;;;;;;4229452;28;20059;-40
2020/12/16 06:08:06;;;;;;;0.77;0.77;;;16.60;83.60;;;;;;4226566;28;20047;-41
2020/12/16 06:10:28;;;;;;;3.85;3.00;;;16.70;83.00;;;;;;4230728;28;20056;-41
2020/12/16 06:12:53;;;;;;;0.85;0.85;;;16.70;82.60;;;;;;4232526;28;20051;-42
2020/12/16 06:15:17;;;;;;;1.13;1.13;;;16.80;82.40;;;;;;4232599;28;20809;-41
2020/12/16 06:17:40;;;;;;;0.40;0.40;;;16.80;82.30;;;;;;4232648;28;20062;-41
2020/12/16 06:20:02;;;;;;;0.45;0.45;;;16.80;83.20;;;;;;4232547;28;20075;-41
2020/12/16 06:22:25;;;;;;;0.20;0.20;;;16.70;82.60;;;;;;4232733;28;20047;-40
2020/12/16 06:24:45;;;;;;;0.35;0.35;;;16.70;82.60;;;;;;4232253;28;20056;-41
2020/12/16 06:27:09;;;;;;;0.45;0.45;;;16.70;82.60;;;;;;4232490;27;20055;-41
2020/12/16 06:29:31;;;;;;;0.75;0.75;;;16.70;82.80;;;;;;4232394;28;20086;-41
2020/12/16 06:31:52;;;;;;;0.10;0.10;;;16.60;82.90;;;;;;4232054;28;20047;-41
2020/12/16 06:34:16;;;;;;;0.93;0.93;;;16.60;83.20;;;;;;4232773;28;20146;-41
2020/12/16 06:36:41;;;;;;;0.20;0.10;;;16.50;83.50;;;;;;4231933;28;20052;-41
2020/12/16 06:39:14;;;;;;;0.20;0.20;;;16.40;83.90;;;;;;4232525;27;20421;-41
2020/12/16 06:41:35;;;;;;;0.13;0.13;;;16.40;84.30;;;;;;4231486;28;20043;-41
2020/12/16 06:43:59;;;;;;;;;;;16.30;84.50;;;;;;4232570;28;20058;-40
2020/12/16 06:46:41;;;;;;;0.00;0.00;;;16.30;84.90;;;;;;4232195;28;19928;-41
2020/12/16 06:49:05;;;;;;;0.85;0.85;;;16.30;84.70;;;;;;4231760;27;20130;-40
2020/12/16 06:51:30;;;;;;;0.05;0.05;;;16.50;84.00;;;;;;4231779;28;20074;-40
2020/12/16 06:54:05;;;;;;;0.25;0.25;;;16.60;83.30;;;;;;4231656;28;20048;-41
2020/12/16 06:56:32;;;;;;;0.30;0.30;;;16.70;82.70;;;;;;4231450;27;20081;-40
2020/12/16 06:58:53;;;;;;;0.00;0.00;;;16.80;82.30;;;;;;4232296;27;20082;-41
2020/12/16 07:01:16;;;;;;;0.00;0.00;;;16.90;81.90;;;;;;4231895;28;20424;-41
2020/12/16 07:03:40;;;;;;;0.38;0.38;;;17.00;81.40;;;;;;4232048;28;20525;-41
2020/12/16 07:06:01;;;;;;;0.47;0.47;;;17.20;80.30;;;;;;4231895;28;20048;-41
2020/12/16 07:08:27;;;;;;;0.55;0.55;;;17.40;79.60;;;;;;4231689;28;20055;-41
2020/12/16 07:10:49;;;;;;;0.80;0.80;;;17.30;80.00;;;;;;4231876;28;20433;-41
2020/12/16 07:13:21;;;;;;;0.00;0.00;;;17.30;80.30;;;;;;4231686;28;20062;-40
2020/12/16 07:15:47;;;;;;;0.63;0.63;;;17.30;80.40;;;;;;4232031;28;20055;-40
2020/12/16 07:18:23;;;;;;;0.10;0.10;;;17.20;80.70;;;;;;4231227;28;20619;-41
2020/12/16 07:20:47;;;;;;;4.57;1.17;;;17.20;80.90;;;;;;4231884;28;20055;-41
2020/12/16 07:23:11;;;;;;;0.10;0.10;;;17.30;80.60;;;;;;4230254;28;20061;-40
2020/12/16 07:25:37;;;;;;;0.05;0.05;;;17.30;80.20;;;;;;4231210;28;20063;-40
2020/12/16 07:27:58;;;;;;;0.90;0.90;;;17.30;80.20;;;;;;4214939;28;20056;-40
2020/12/16 07:30:19;;;;;;;;;;;17.30;80.50;;;;;;4215124;28;20052;-41
2020/12/16 07:32:45;;;;;;;0.00;0.00;;;17.20;80.70;;;;;;4214499;28;19981;-41
2020/12/16 07:35:06;;;;;;;0.13;0.13;;;17.10;80.90;;;;;;4214510;28;20305;-40
2020/12/16 07:37:32;;;;;;;2.13;0.65;;;17.10;81.50;;;;;;4230016;28;20428;-41
2020/12/16 07:39:55;;;;;;;1.27;1.27;;;17.10;81.50;;;;;;4231692;28;20486;-40
2020/12/16 07:42:21;;;;;;;0.28;0.28;;;17.10;81.20;;;;;;4230820;28;20052;-41
2020/12/16 07:44:45;;;;;;;1.27;0.90;;;17.30;80.70;;;;;;4231396;27;20048;-40
2020/12/16 07:47:06;;;;;;;1.13;1.02;;;17.50;79.80;;;;;;4231375;28;20550;-41
2020/12/16 07:49:29;;;;;;;1.70;0.85;;;17.60;79.10;;;;;;4230395;28;20043;-41
2020/12/16 07:51:58;;;;;;;1.90;1.85;;;17.60;78.80;;;;;;4231037;28;20059;-41
2020/12/16 07:54:23;;;;;;;0.00;0.00;;;17.50;78.70;;;;;;4231003;28;20073;-41
2020/12/16 07:56:54;;;;;;;0.63;0.63;;;17.50;79.00;;;;;;4231076;28;20051;-41
2020/12/16 07:59:16;;;;;;;0.65;0.22;;;17.40;79.30;;;;;;4231016;28;20128;-41
2020/12/16 08:01:37;;;;;;;1.08;1.08;;;17.30;79.80;;;;;;4230928;28;20113;-41
2020/12/16 08:03:58;;;;;;;0.63;0.63;;;17.20;80.20;;;;;;4230958;28;20039;-41
2020/12/16 08:06:19;;;;;;;3.30;2.10;;;17.10;80.70;;;;;;4230615;28;20082;-40
2020/12/16 08:08:45;;;;;;;0.95;0.95;;;17.10;81.30;;;;;;4231031;28;20055;-40
2020/12/16 08:11:12;;;;;;;0.20;0.20;;;17.00;81.50;;;;;;4230711;28;20126;-41
2020/12/16 08:13:33;;;;;;;0.40;0.40;;;17.00;81.70;;;;;;4231102;28;20056;-40
2020/12/16 08:16:04;;;;;;;;;;;16.90;83.00;;;;;;4231017;28;20104;-41
2020/12/16 08:18:25;;;;;;;0.00;0.00;;;16.90;85.30;;;;;;4230564;28;19919;-41
2020/12/16 08:20:46;;;;;;;0.95;0.95;;;16.80;85.30;;;;;;4230625;28;20051;-41
2020/12/16 08:23:12;;;;;;;0.00;0.00;;;16.70;85.40;;;;;;4224198;28;20054;-41
2020/12/16 08:25:36;;;;;;;0.28;0.28;;;16.60;85.20;;;;;;4226697;28;20463;-41
2020/12/16 08:27:58;;;;;;;1.45;1.45;;;16.70;84.80;;;;;;4230623;28;20104;-41
2020/12/16 08:30:23;;;;;;;0.30;0.30;;;16.80;84.00;;;;;;4221417;28;20495;-41
2020/12/16 08:32:52;;;;;;;0.63;0.63;;;16.80;84.60;;;;;;4225576;28;20044;-41
2020/12/16 08:35:20;;;;;;;0.85;0.85;;;16.80;83.50;;;;;;4213478;28;20482;-41
2020/12/16 08:37:42;;;;;;;1.40;1.20;;;16.70;83.20;;;;;;4213987;28;20052;-41
2020/12/16 08:40:04;;;;;;;0.03;0.03;;;16.70;83.20;;;;;;4213414;28;20063;-41
2020/12/16 08:42:25;;;;;;;0.70;0.70;;;16.60;83.20;;;;;;4226063;28;20051;-40
2020/12/16 08:44:47;;;;;;;0.30;0.30;;;16.60;83.50;;;;;;4230169;28;20494;-41
2020/12/16 08:47:08;;;;;;;0.77;0.77;;;16.70;82.70;;;;;;4230044;28;20162;-42
2020/12/16 08:49:29;;;;;;;1.02;1.02;;;16.80;81.90;;;;;;4230072;28;20052;-41
2020/12/16 08:51:50;;;;;;;0.77;0.77;;;16.80;81.30;;;;;;4229859;28;20075;-41
2020/12/16 08:54:12;;;;;;;;;;;16.80;81.10;;;;;;4230075;28;20055;-41
2020/12/16 08:56:36;;;;;;;0.43;0.43;;;16.80;81.00;;;;;;4228585;28;19930;-41
2020/12/16 08:59:02;;;;;;;0.57;0.57;;;16.70;80.90;;;;;;4230148;28;20047;-40
2020/12/16 09:01:24;;;;;;;2.83;1.88;;;16.70;81.10;;;;;;4230031;28;20108;-40
2020/12/16 09:03:45;;;;;;;0.05;0.05;;;16.60;81.20;;;;;;4229900;27;20059;-41
2020/12/16 09:06:06;;;;;;;1.35;1.35;;;16.50;81.40;;;;;;4230458;27;20062;-41
2020/12/16 09:08:29;;;;;;;0.68;0.68;;;16.40;81.60;;;;;;4229667;28;20059;-41
2020/12/16 09:10:57;;;;;;;4.57;2.42;;;16.30;82.00;;;;;;4229628;28;20063;-41
2020/12/16 09:13:19;;;;;;;1.52;1.48;;;16.20;82.30;;;;;;4230370;28;20048;-41
2020/12/16 09:15:43;;;;;;;0.43;0.43;;;16.10;82.70;;;;;;4229445;28;20413;-41
2020/12/16 09:18:05;;;;;;;0.35;0.35;;;16.00;82.90;;;;;;4229348;28;20059;-40
2020/12/16 09:20:26;;;;;;;0.90;0.90;;;15.90;83.30;;;;;;4229747;28;20055;-40
2020/12/16 09:22:53;;;;;;;0.45;0.45;;;15.80;83.90;;;;;;4228954;28;20052;-41
2020/12/16 09:25:16;;;;;;;0.65;0.65;;;15.80;84.50;;;;;;4226539;28;20079;-40
2020/12/16 09:27:50;;;;;;;1.98;1.02;;;15.70;84.80;;;;;;4229181;28;20686;-41
2020/12/16 09:30:11;;;;;;;0.10;0.10;;;15.60;85.00;;;;;;4229469;28;20130;-41
2020/12/16 09:32:35;;;;;;;0.47;0.43;;;15.60;85.30;;;;;;4229246;28;20044;-40
2020/12/16 09:34:57;;;;;;;1.05;0.98;;;15.50;85.90;;;;;;4229187;28;20052;-40
2020/12/16 09:37:21;;;;;;;0.05;0.05;;;15.50;85.70;;;;;;4212341;28;20510;-41
2020/12/16 09:39:44;;;;;;;1.08;1.05;;;15.40;85.80;;;;;;4212392;28;20130;-41
2020/12/16 09:42:09;;;;;;;1.25;1.00;;;15.40;86.00;;;;;;4212246;28;20048;-41
2020/12/16 09:44:31;;;;;;;2.00;1.77;;;15.40;86.10;;;;;;4212741;28;20131;-41
2020/12/16 09:46:53;;;;;;;3.83;0.65;;;15.30;86.30;;;;;;4212368;28;20044;-40
2020/12/16 09:49:19;;;;;;;0.22;0.22;;;15.30;86.50;;;;;;4212346;28;20052;-40
2020/12/16 09:51:41;;;;;;;0.10;0.10;;;15.20;86.70;;;;;;4216314;28;20538;-41
2020/12/16 09:54:08;;;;;;;1.23;1.23;;;15.20;86.80;;;;;;4228812;28;20518;-41
2020/12/16 09:56:29;;;;;;;0.20;0.20;;;15.10;87.00;;;;;;4229435;28;20135;-41
2020/12/16 09:58:50;;;;;;;3.63;0.90;;;15.10;87.00;;;;;;4229504;28;20075;-40
2020/12/16 10:01:11;;;;;;;1.35;1.25;;;15.10;87.20;;;;;;4229056;28;20066;-41
2020/12/16 10:03:32;;;;;;;1.77;1.65;;;15.10;87.50;;;;;;4228515;28;20097;-42
2020/12/16 10:05:53;;;;;;;1.50;1.50;;;15.40;86.70;;;;;;4228995;28;20047;-41
2020/12/16 10:08:16;;;;;;;0.00;0.00;;;15.70;85.10;;;;;;4228931;28;20055;-41
2020/12/16 10:10:38;;;;;;;1.35;1.33;;;16.00;83.70;;;;;;4229131;28;20132;-40
2020/12/16 10:12:58;;;;;;;0.60;0.60;;;16.20;82.60;;;;;;4227984;28;20055;-41
2020/12/16 10:15:19;;;;;;;2.28;2.17;;;16.30;82.30;;;;;;4228769;28;20056;-40
2020/12/16 10:17:40;;;;;;;2.00;1.90;;;16.30;81.90;;;;;;4228892;28;20055;-41
2020/12/16 10:20:02;;;;;;;0.90;0.90;;;16.20;81.70;;;;;;4228814;28;20052;-41
2020/12/16 10:22:23;;;;;;;0.98;0.98;;;16.20;81.90;;;;;;4228843;28;20059;-41
2020/12/16 10:24:45;;;;;;;0.47;0.47;;;16.40;81.30;;;;;;4228582;28;20059;-41
2020/12/16 10:27:06;;;;;;;0.30;0.30;;;16.60;80.30;;;;;;4229038;28;20055;-41
2020/12/16 10:29:29;;;;;;;1.65;1.55;;;16.70;79.50;;;;;;4229230;28;20047;-41
2020/12/16 10:31:50;;;;;;;0.38;0.38;;;16.70;79.20;;;;;;4228747;28;20075;-41
2020/12/16 10:34:11;;;;;;;1.25;1.25;;;16.70;80.10;;;;;;4211926;28;20063;-41
2020/12/16 10:36:32;;;;;;;5.72;2.13;;;16.70;79.30;;;;;;4211924;28;20136;-40
2020/12/16 10:38:53;;;;;;;0.80;0.80;;;16.70;80.20;;;;;;4228328;28;20056;-42
2020/12/16 10:41:16;;;;;;;2.40;2.22;;;16.60;79.50;;;;;;4228708;28;20055;-41
2020/12/16 10:43:37;;;;;;;2.92;2.38;;;16.50;79.80;;;;;;4228515;28;20055;-41
2020/12/16 10:45:57;;;;;;;1.25;1.25;;;16.40;80.10;;;;;;4229222;28;20052;-43
2020/12/16 10:48:18;;;;;;;1.60;1.60;;;16.30;80.50;;;;;;4228681;28;20147;-41
2020/12/16 10:50:39;;;;;;;0.93;0.93;;;16.20;80.80;;;;;;4227508;28;20047;-41
2020/12/16 10:53:00;;;;;;;1.65;1.10;;;16.20;80.90;;;;;;4228780;28;20089;-41
2020/12/16 10:55:22;;;;;;;2.90;2.70;;;16.10;81.30;;;;;;4214231;28;20536;-43
2020/12/16 10:57:44;;;;;;;2.10;2.00;;;16.00;81.70;;;;;;4230271;28;20501;-45
2020/12/16 11:00:05;;;;;;;1.85;1.75;;;15.90;82.10;;;;;;4231775;28;20083;-45
2020/12/16 11:02:27;;;;;;;0.80;0.80;;;15.80;82.40;;;;;;4232317;28;20058;-42
2020/12/16 11:04:48;;;;;;;1.20;1.20;;;15.80;82.80;;;;;;4231515;27;20503;-41
2020/12/16 11:07:10;;;;;;;1.08;1.08;;;15.70;83.20;;;;;;4231507;28;20051;-41
2020/12/16 11:09:32;;;;;;;1.65;1.55;;;15.70;83.70;;;;;;4231978;28;20563;-42
2020/12/16 11:11:54;;;;;;;4.25;1.23;;;15.80;83.00;;;;;;4216201;28;20064;-41
2020/12/16 11:14:16;;;;;;;0.60;0.60;;;16.20;81.50;;;;;;4231511;28;20497;-41
2020/12/16 11:16:40;;;;;;;2.10;0.85;;;16.40;80.30;;;;;;4232021;28;20056;-41
2020/12/16 11:19:01;;;;;;;2.20;1.25;;;16.40;79.90;;;;;;4232056;28;20059;-41
2020/12/16 11:21:22;;;;;;;;;;;16.50;79.70;;;;;;4215489;28;20052;-40
2020/12/16 11:23:44;;;;;;;2.50;2.37;;;16.40;79.60;;;;;;4220714;28;19930;-41
2020/12/16 11:26:05;;;;;;;0.32;0.32;;;16.40;79.80;;;;;;4230738;28;20304;-40
2020/12/16 11:28:26;;;;;;;0.10;0.10;;;16.40;80.00;;;;;;4230953;28;20052;-41
2020/12/16 11:30:47;;;;;;;;;;;16.30;80.30;;;;;;4226967;28;20079;-40
2020/12/16 11:33:08;;;;;;;1.05;0.95;;;16.20;80.60;;;;;;4231163;28;20377;-40
2020/12/16 11:35:29;;;;;;;0.75;0.75;;;16.10;80.90;;;;;;4230803;28;20081;-40
2020/12/16 11:37:50;;;;;;;0.88;0.88;;;16.10;81.20;;;;;;4231585;28;20059;-40
2020/12/16 11:40:12;;;;;;;4.18;3.80;;;16.00;81.40;;;;;;4231341;28;20109;-41
2020/12/16 11:42:33;;;;;;;1.08;1.08;;;15.90;81.80;;;;;;4230960;28;20452;-40
2020/12/16 11:44:54;;;;;;;0.45;0.45;;;15.80;82.30;;;;;;4230793;28;20052;-40
2020/12/16 11:47:14;;;;;;;1.00;0.95;;;15.80;82.70;;;;;;4230984;27;20444;-41
2020/12/16 11:49:35;;;;;;;1.65;1.65;;;15.70;83.00;;;;;;4230631;28;20047;-41
2020/12/16 11:51:58;;;;;;;7.88;3.22;;;15.60;83.40;;;;;;4230567;27;20066;-41
2020/12/16 11:54:20;;;;;;;1.15;1.08;;;15.60;83.70;;;;;;4230924;28;20426;-40
2020/12/16 11:56:45;;;;;;;2.10;1.90;;;15.50;84.00;;;;;;4230791;28;20481;-41
2020/12/16 11:59:17;;;;;;;2.28;1.45;;;15.50;84.30;;;;;;4230944;28;20490;-40
2020/12/16 12:01:41;;;;;;;1.42;1.35;;;15.40;84.70;;;;;;4230850;28;20048;-41
2020/12/16 12:04:02;;;;;;;2.10;2.00;;;15.30;85.00;;;;;;4230183;28;20052;-40
2020/12/16 12:06:23;;;;;;;0.88;0.88;;;15.30;85.30;;;;;;4230613;28;20051;-41
2020/12/16 12:08:44;;;;;;;1.20;1.20;;;15.20;85.50;;;;;;4228782;28;20527;-40
2020/12/16 12:11:06;;;;;;;;;;;15.20;86.50;;;;;;4230690;28;20108;-40
2020/12/16 12:13:28;;;;;;;0.17;0.17;;;15.20;86.00;;;;;;4217418;28;19931;-40
2020/12/16 12:15:52;;;;;;;1.20;1.17;;;15.10;86.10;;;;;;4213917;28;20055;-40
2020/12/16 12:18:14;;;;;;;0.50;0.50;;;15.10;86.20;;;;;;4229829;28;20048;-40
2020/12/16 12:20:38;;;;;;;0.70;0.70;;;15.10;86.40;;;;;;4230075;28;20055;-41
2020/12/16 12:22:59;;;;;;;0.90;0.90;;;15.00;86.60;;;;;;4229932;28;20097;-40
2020/12/16 12:25:20;;;;;;;0.85;0.85;;;15.00;86.70;;;;;;4230145;28;20067;-41
2020/12/16 12:27:41;;;;;;;4.18;3.78;;;14.90;86.80;;;;;;4227019;28;20055;-40
2020/12/16 12:30:05;;;;;;;4.35;2.88;;;14.90;87.00;;;;;;4230773;28;20055;-40
2020/12/16 12:32:30;;;;;;;0.80;0.80;;;14.90;87.20;;;;;;4229892;28;20092;-40
2020/12/16 12:34:51;;;;;;;0.40;0.40;;;14.90;87.30;;;;;;4230043;27;20130;-41
2020/12/16 12:37:12;;;;;;;1.35;0.88;;;14.90;87.50;;;;;;4230062;28;20558;-41